sensor_id;sensor_type;location;lat;lon;timestamp;P1;durP1;ratioP1;P2;durP2;ratioP2
51326;SDS011;37412;52.836;6.362;2023-03-01T17:37:59;35.38;;;18.50;;
51326;SDS011;37412;52.836;6.362;2023-03-01T17:40:45;35.60;;;18.42;;
51326;SDS011;37412;52.836;6.362;2023-03-01T17:43:31;32.58;;;18.38;;
51326;SDS011;37412;52.836;6.362;2023-03-01T17:46:19;31.25;;;18.75;;
51326;SDS011;37412;52.836;6.362;2023-03-01T17:49:05;33.78;;;18.83;;
51326;SDS011;37412;52.836;6.362;2023-03-01T17:51:51;30.65;;;18.30;;
51326;SDS011;37412;52.836;6.362;2023-03-01T17:54:37;26.73;;;17.40;;
51326;SDS011;37412;52.836;6.362;2023-03-01T17:57:23;30.75;;;18.60;;
51326;SDS011;37412;52.836;6.362;2023-03-01T18:00:09;35.13;;;21.52;;
51326;SDS011;37412;52.836;6.362;2023-03-01T18:02:57;30.25;;;19.02;;
51326;SDS011;37412;52.836;6.362;2023-03-01T18:05:43;27.40;;;18.13;;
51326;SDS011;37412;52.836;6.362;2023-03-01T18:08:29;31.20;;;17.95;;
51326;SDS011;37412;52.836;6.362;2023-03-01T18:11:18;27.15;;;17.60;;
51326;SDS011;37412;52.836;6.362;2023-03-01T18:14:04;26.83;;;17.40;;
51326;SDS011;37412;52.836;6.362;2023-03-01T18:16:50;33.30;;;20.38;;
51326;SDS011;37412;52.836;6.362;2023-03-01T18:19:37;31.40;;;19.48;;
51326;SDS011;37412;52.836;6.362;2023-03-01T18:22:25;32.33;;;19.35;;
51326;SDS011;37412;52.836;6.362;2023-03-01T18:25:11;31.23;;;18.70;;
51326;SDS011;37412;52.836;6.362;2023-03-01T18:27:57;32.58;;;20.40;;
51326;SDS011;37412;52.836;6.362;2023-03-01T18:30:43;34.00;;;20.10;;
51326;SDS011;37412;52.836;6.362;2023-03-01T18:33:30;31.13;;;19.27;;
51326;SDS011;37412;52.836;6.362;2023-03-01T18:36:21;31.38;;;19.40;;
51326;SDS011;37412;52.836;6.362;2023-03-01T18:39:09;30.13;;;19.58;;
51326;SDS011;37412;52.836;6.362;2023-03-01T18:41:55;28.35;;;19.00;;
51326;SDS011;37412;52.836;6.362;2023-03-01T18:44:41;30.25;;;19.52;;
51326;SDS011;37412;52.836;6.362;2023-03-01T18:47:27;30.30;;;19.75;;
51326;SDS011;37412;52.836;6.362;2023-03-01T18:50:13;30.90;;;20.23;;
51326;SDS011;37412;52.836;6.362;2023-03-01T18:53:00;30.10;;;19.83;;
51326;SDS011;37412;52.836;6.362;2023-03-01T18:55:46;28.00;;;18.75;;
51326;SDS011;37412;52.836;6.362;2023-03-01T18:58:32;29.15;;;18.85;;
51326;SDS011;37412;52.836;6.362;2023-03-01T19:01:22;29.95;;;18.23;;
51326;SDS011;37412;52.836;6.362;2023-03-01T19:04:10;28.27;;;18.77;;
51326;SDS011;37412;52.836;6.362;2023-03-01T19:06:56;27.75;;;18.75;;
51326;SDS011;37412;52.836;6.362;2023-03-01T19:09:42;30.42;;;19.80;;
51326;SDS011;37412;52.836;6.362;2023-03-01T19:12:28;29.60;;;19.65;;
51326;SDS011;37412;52.836;6.362;2023-03-01T19:15:15;29.58;;;19.85;;
51326;SDS011;37412;52.836;6.362;2023-03-01T19:18:01;32.10;;;21.63;;
51326;SDS011;37412;52.836;6.362;2023-03-01T19:20:55;34.67;;;22.40;;
51326;SDS011;37412;52.836;6.362;2023-03-01T19:23:42;34.90;;;21.08;;
51326;SDS011;37412;52.836;6.362;2023-03-01T19:26:29;37.00;;;23.63;;
51326;SDS011;37412;52.836;6.362;2023-03-01T19:29:15;33.75;;;21.73;;
51326;SDS011;37412;52.836;6.362;2023-03-01T19:32:01;37.08;;;23.23;;
51326;SDS011;37412;52.836;6.362;2023-03-01T19:34:47;34.15;;;22.65;;
51326;SDS011;37412;52.836;6.362;2023-03-01T19:37:33;31.73;;;20.15;;
51326;SDS011;37412;52.836;6.362;2023-03-01T19:40:19;32.60;;;20.05;;
51326;SDS011;37412;52.836;6.362;2023-03-01T19:43:05;31.10;;;21.10;;
51326;SDS011;37412;52.836;6.362;2023-03-01T19:45:52;33.58;;;22.05;;
51326;SDS011;37412;52.836;6.362;2023-03-01T19:48:38;29.50;;;20.60;;
51326;SDS011;37412;52.836;6.362;2023-03-01T19:51:25;29.60;;;21.50;;
51326;SDS011;37412;52.836;6.362;2023-03-01T19:54:11;30.55;;;21.27;;
51326;SDS011;37412;52.836;6.362;2023-03-01T19:56:59;31.40;;;21.23;;
51326;SDS011;37412;52.836;6.362;2023-03-01T19:59:45;31.30;;;21.13;;
51326;SDS011;37412;52.836;6.362;2023-03-01T20:02:31;28.45;;;21.05;;
51326;SDS011;37412;52.836;6.362;2023-03-01T20:05:17;30.55;;;20.95;;
51326;SDS011;37412;52.836;6.362;2023-03-01T20:08:03;31.77;;;22.67;;
51326;SDS011;37412;52.836;6.362;2023-03-01T20:10:50;31.75;;;21.95;;
51326;SDS011;37412;52.836;6.362;2023-03-01T20:13:36;28.73;;;21.33;;
51326;SDS011;37412;52.836;6.362;2023-03-01T20:16:22;31.60;;;21.83;;
51326;SDS011;37412;52.836;6.362;2023-03-01T20:19:10;32.20;;;21.67;;
51326;SDS011;37412;52.836;6.362;2023-03-01T20:21:56;31.55;;;23.08;;
51326;SDS011;37412;52.836;6.362;2023-03-01T20:24:42;31.25;;;21.40;;
51326;SDS011;37412;52.836;6.362;2023-03-01T20:27:28;30.90;;;21.02;;
51326;SDS011;37412;52.836;6.362;2023-03-01T20:30:14;31.67;;;22.30;;
51326;SDS011;37412;52.836;6.362;2023-03-01T20:33:00;29.92;;;21.15;;
51326;SDS011;37412;52.836;6.362;2023-03-01T20:35:47;32.80;;;22.27;;
51326;SDS011;37412;52.836;6.362;2023-03-01T20:38:33;30.40;;;21.25;;
51326;SDS011;37412;52.836;6.362;2023-03-01T20:41:19;27.88;;;20.58;;
51326;SDS011;37412;52.836;6.362;2023-03-01T20:44:05;29.42;;;20.65;;
51326;SDS011;37412;52.836;6.362;2023-03-01T20:46:51;33.50;;;22.45;;
51326;SDS011;37412;52.836;6.362;2023-03-01T20:49:37;29.55;;;21.67;;
51326;SDS011;37412;52.836;6.362;2023-03-01T20:52:24;32.63;;;22.42;;
51326;SDS011;37412;52.836;6.362;2023-03-01T20:55:10;36.42;;;24.17;;
